sensor_id;sensor_type;location;lat;lon;timestamp;pressure;altitude;pressure_sealevel;temperature;humidity
56568;BME280;42456;49.956;20.004;2022-07-12T00:00:56;98607.35;;;12.13;81.86
56568;BME280;42456;49.956;20.004;2022-07-12T00:03:22;98616.21;;;12.13;82.14
56568;BME280;42456;49.956;20.004;2022-07-12T00:05:49;98616.21;;;12.13;82.14
56568;BME280;42456;49.956;20.004;2022-07-12T00:08:16;98619.38;;;12.15;82.26
56568;BME280;42456;49.956;20.004;2022-07-12T00:10:42;98613.11;;;12.17;82.34
56568;BME280;42456;49.956;20.004;2022-07-12T00:13:09;98607.71;;;12.17;82.29
56568;BME280;42456;49.956;20.004;2022-07-12T00:15:36;98605.23;;;12.18;82.32
56568;BME280;42456;49.956;20.004;2022-07-12T00:18:03;98610.30;;;12.20;82.27
56568;BME280;42456;49.956;20.004;2022-07-12T00:20:29;98610.77;;;12.22;82.34
56568;BME280;42456;49.956;20.004;2022-07-12T00:22:55;98609.42;;;12.22;82.35
56568;BME280;42456;49.956;20.004;2022-07-12T00:25:21;98611.45;;;12.25;82.40
56568;BME280;42456;49.956;20.004;2022-07-12T00:27:48;98610.19;;;12.22;82.40
56568;BME280;42456;49.956;20.004;2022-07-12T00:30:15;98606.72;;;12.22;82.43
56568;BME280;42456;49.956;20.004;2022-07-12T00:32:41;98617.17;;;12.23;82.44
56568;BME280;42456;49.956;20.004;2022-07-12T00:35:08;98614.15;;;12.25;82.51
56568;BME280;42456;49.956;20.004;2022-07-12T00:37:34;98614.84;;;12.28;82.64
56568;BME280;42456;49.956;20.004;2022-07-12T00:40:01;98614.84;;;12.28;82.64
56568;BME280;42456;49.956;20.004;2022-07-12T00:42:32;98621.25;;;12.29;82.64
56568;BME280;42456;49.956;20.004;2022-07-12T00:44:59;98622.81;;;12.30;82.70
56568;BME280;42456;49.956;20.004;2022-07-12T00:50:14;98623.97;;;12.35;82.67
56568;BME280;42456;49.956;20.004;2022-07-12T00:52:43;98620.61;;;12.38;82.67
56568;BME280;42456;49.956;20.004;2022-07-12T00:55:11;98620.94;;;12.37;82.69
56568;BME280;42456;49.956;20.004;2022-07-12T00:57:39;98621.05;;;12.40;82.69
56568;BME280;42456;49.956;20.004;2022-07-12T01:00:09;98619.15;;;12.41;82.86
56568;BME280;42456;49.956;20.004;2022-07-12T01:02:37;98628.47;;;12.43;82.73
56568;BME280;42456;49.956;20.004;2022-07-12T01:05:05;98627.38;;;12.44;82.71
56568;BME280;42456;49.956;20.004;2022-07-12T01:07:34;98631.09;;;12.46;82.73
56568;BME280;42456;49.956;20.004;2022-07-12T01:10:01;98632.11;;;12.47;82.74
56568;BME280;42456;49.956;20.004;2022-07-12T01:12:28;98633.34;;;12.50;82.72
56568;BME280;42456;49.956;20.004;2022-07-12T01:14:56;98634.47;;;12.49;82.72
56568;BME280;42456;49.956;20.004;2022-07-12T01:17:24;98638.95;;;12.51;82.80
56568;BME280;42456;49.956;20.004;2022-07-12T01:19:53;98640.55;;;12.52;82.74
56568;BME280;42456;49.956;20.004;2022-07-12T01:22:26;98635.93;;;12.52;82.76
56568;BME280;42456;49.956;20.004;2022-07-12T01:24:55;98634.83;;;12.53;82.77
56568;BME280;42456;49.956;20.004;2022-07-12T01:27:21;98625.60;;;12.54;82.87
56568;BME280;42456;49.956;20.004;2022-07-12T01:29:48;98626.62;;;12.56;82.58
56568;BME280;42456;49.956;20.004;2022-07-12T01:32:14;98630.33;;;12.57;82.78
56568;BME280;42456;49.956;20.004;2022-07-12T01:34:55;98625.07;;;12.61;82.74
56568;BME280;42456;49.956;20.004;2022-07-12T01:37:36;98625.07;;;12.61;82.74
56568;BME280;42456;49.956;20.004;2022-07-12T01:40:07;98619.42;;;12.60;82.75
56568;BME280;42456;49.956;20.004;2022-07-12T01:42:38;98611.00;;;12.61;82.76
56568;BME280;42456;49.956;20.004;2022-07-12T01:45:05;98617.99;;;12.62;82.78
56568;BME280;42456;49.956;20.004;2022-07-12T01:47:33;98609.31;;;12.63;82.78
56568;BME280;42456;49.956;20.004;2022-07-12T01:50:00;98596.84;;;12.64;82.76
56568;BME280;42456;49.956;20.004;2022-07-12T01:52:29;98603.59;;;12.64;82.76
56568;BME280;42456;49.956;20.004;2022-07-12T01:54:57;98612.48;;;12.65;82.75
56568;BME280;42456;49.956;20.004;2022-07-12T01:57:24;98611.13;;;12.65;82.79
56568;BME280;42456;49.956;20.004;2022-07-12T01:59:51;98610.33;;;12.64;82.83
56568;BME280;42456;49.956;20.004;2022-07-12T02:02:17;98606.86;;;12.64;82.91
56568;BME280;42456;49.956;20.004;2022-07-12T02:04:44;98611.34;;;12.66;82.96
56568;BME280;42456;49.956;20.004;2022-07-12T02:07:10;98612.70;;;12.66;82.98
56568;BME280;42456;49.956;20.004;2022-07-12T02:09:36;98611.02;;;12.67;83.04
56568;BME280;42456;49.956;20.004;2022-07-12T02:12:03;98613.16;;;12.68;83.06
56568;BME280;42456;49.956;20.004;2022-07-12T02:14:30;98608.56;;;12.68;83.19
56568;BME280;42456;49.956;20.004;2022-07-12T02:16:56;98610.93;;;12.70;83.15
56568;BME280;42456;49.956;20.004;2022-07-12T02:19:22;98611.70;;;12.70;83.11
56568;BME280;42456;49.956;20.004;2022-07-12T02:21:48;98615.99;;;12.71;83.20
56568;BME280;42456;49.956;20.004;2022-07-12T02:24:15;98614.06;;;12.72;83.23
56568;BME280;42456;49.956;20.004;2022-07-12T02:26:41;98620.26;;;12.72;83.27
56568;BME280;42456;49.956;20.004;2022-07-12T02:29:09;98619.13;;;12.73;83.28
56568;BME280;42456;49.956;20.004;2022-07-12T02:31:35;98617.44;;;12.75;83.29
56568;BME280;42456;49.956;20.004;2022-07-12T02:34:01;98614.99;;;12.76;83.31
56568;BME280;42456;49.956;20.004;2022-07-12T02:36:28;98622.51;;;12.76;83.27
56568;BME280;42456;49.956;20.004;2022-07-12T02:38:54;98616.55;;;12.77;83.26
56568;BME280;42456;49.956;20.004;2022-07-12T02:41:21;98621.84;;;12.79;83.26
56568;BME280;42456;49.956;20.004;2022-07-12T02:43:47;98618.38;;;12.79;83.25
56568;BME280;42456;49.956;20.004;2022-07-12T02:46:13;98612.86;;;12.81;83.27
56568;BME280;42456;49.956;20.004;2022-07-12T02:48:40;98618.04;;;12.80;83.27
56568;BME280;42456;49.956;20.004;2022-07-12T02:51:07;98620.95;;;12.81;83.25
56568;BME280;42456;49.956;20.004;2022-07-12T02:53:34;98623.88;;;12.82;83.26
56568;BME280;42456;49.956;20.004;2022-07-12T02:56:01;98625.47;;;12.83;83.22
56568;BME280;42456;49.956;20.004;2022-07-12T02:58:28;98630.86;;;12.83;83.21
56568;BME280;42456;49.956;20.004;2022-07-12T03:00:55;98619.16;;;12.85;83.16
56568;BME280;42456;49.956;20.004;2022-07-12T03:03:21;98619.16;;;12.85;83.16
56568;BME280;42456;49.956;20.004;2022-07-12T03:05:47;98613.20;;;12.86;83.29
56568;BME280;42456;49.956;20.004;2022-07-12T03:08:14;98610.94;;;12.88;83.22
56568;BME280;42456;49.956;20.004;2022-07-12T03:10:40;98614.10;;;12.90;83.26
56568;BME280;42456;49.956;20.004;2022-07-12T03:13:06;98618.95;;;12.90;83.27
56568;BME280;42456;49.956;20.004;2022-07-12T03:15:33;98614.90;;;12.90;83.27
56568;BME280;42456;49.956;20.004;2022-07-12T03:18:00;98624.56;;;12.91;83.27
56568;BME280;42456;49.956;20.004;2022-07-12T03:20:29;98623.77;;;12.91;83.27
56568;BME280;42456;49.956;20.004;2022-07-12T03:22:55;98624.56;;;12.91;83.29
56568;BME280;42456;49.956;20.004;2022-07-12T03:25:22;98624.78;;;12.92;83.30
56568;BME280;42456;49.956;20.004;2022-07-12T03:27:49;98628.83;;;12.92;83.26
56568;BME280;42456;49.956;20.004;2022-07-12T03:30:16;98623.21;;;12.91;83.29
56568;BME280;42456;49.956;20.004;2022-07-12T03:32:42;98637.17;;;12.93;83.35
56568;BME280;42456;49.956;20.004;2022-07-12T03:35:10;98625.80;;;12.94;83.35
56568;BME280;42456;49.956;20.004;2022-07-12T03:37:48;98631.77;;;12.93;83.27
56568;BME280;42456;49.956;20.004;2022-07-12T03:40:17;98635.48;;;12.95;83.33
56568;BME280;42456;49.956;20.004;2022-07-12T03:42:44;98636.26;;;12.95;83.30
56568;BME280;42456;49.956;20.004;2022-07-12T03:45:12;98638.74;;;12.94;83.60
56568;BME280;42456;49.956;20.004;2022-07-12T03:47:39;98638.74;;;12.94;83.60
56568;BME280;42456;49.956;20.004;2022-07-12T03:50:08;98646.33;;;13.01;83.29
56568;BME280;42456;49.956;20.004;2022-07-12T03:52:37;98645.75;;;13.01;83.27
56568;BME280;42456;49.956;20.004;2022-07-12T03:55:05;98646.55;;;13.02;82.98
56568;BME280;42456;49.956;20.004;2022-07-12T03:57:31;98646.55;;;13.02;82.98
56568;BME280;42456;49.956;20.004;2022-07-12T03:59:58;98648.36;;;13.04;83.13
56568;BME280;42456;49.956;20.004;2022-07-12T04:02:24;98651.83;;;13.04;82.87
56568;BME280;42456;49.956;20.004;2022-07-12T04:04:51;98642.96;;;13.04;83.06
56568;BME280;42456;49.956;20.004;2022-07-12T04:07:18;98640.27;;;13.04;83.08
56568;BME280;42456;49.956;20.004;2022-07-12T04:09:45;98634.06;;;13.03;83.04
56568;BME280;42456;49.956;20.004;2022-07-12T04:12:12;98629.89;;;13.06;83.36
56568;BME280;42456;49.956;20.004;2022-07-12T04:14:38;98629.89;;;13.06;83.36
56568;BME280;42456;49.956;20.004;2022-07-12T04:17:04;98619.09;;;13.06;82.97
56568;BME280;42456;49.956;20.004;2022-07-12T04:19:32;98619.09;;;13.06;82.97
56568;BME280;42456;49.956;20.004;2022-07-12T04:21:59;98621.13;;;13.15;83.18
56568;BME280;42456;49.956;20.004;2022-07-12T04:24:26;98621.13;;;13.15;83.18
56568;BME280;42456;49.956;20.004;2022-07-12T04:26:52;98626.78;;;13.22;83.04
56568;BME280;42456;49.956;20.004;2022-07-12T04:29:20;98634.98;;;13.25;83.09
56568;BME280;42456;49.956;20.004;2022-07-12T04:31:47;98632.40;;;13.29;83.07
56568;BME280;42456;49.956;20.004;2022-07-12T04:34:13;98632.52;;;13.33;83.12
56568;BME280;42456;49.956;20.004;2022-07-12T04:36:44;98640.62;;;13.39;83.07
56568;BME280;42456;49.956;20.004;2022-07-12T04:39:11;98633.20;;;13.42;83.23
56568;BME280;42456;49.956;20.004;2022-07-12T04:41:37;98627.00;;;13.47;82.95
56568;BME280;42456;49.956;20.004;2022-07-12T04:44:07;98625.43;;;13.52;82.96
56568;BME280;42456;49.956;20.004;2022-07-12T04:46:34;98625.97;;;13.70;83.00
56568;BME280;42456;49.956;20.004;2022-07-12T04:49:00;98629.87;;;13.84;82.85
56568;BME280;42456;49.956;20.004;2022-07-12T04:51:27;98639.55;;;14.03;82.85
56568;BME280;42456;49.956;20.004;2022-07-12T04:53:53;98633.27;;;14.33;82.64
56568;BME280;42456;49.956;20.004;2022-07-12T04:56:19;98640.66;;;14.48;82.05
56568;BME280;42456;49.956;20.004;2022-07-12T04:58:46;98634.55;;;14.51;81.48
56568;BME280;42456;49.956;20.004;2022-07-12T05:01:13;98628.94;;;14.50;80.93
56568;BME280;42456;49.956;20.004;2022-07-12T05:03:39;98634.66;;;14.54;80.57
56568;BME280;42456;49.956;20.004;2022-07-12T05:06:05;98649.20;;;14.56;80.51
56568;BME280;42456;49.956;20.004;2022-07-12T05:08:32;98637.10;;;14.59;80.43
56568;BME280;42456;49.956;20.004;2022-07-12T05:10:58;98638.56;;;14.63;80.32
56568;BME280;42456;49.956;20.004;2022-07-12T05:13:24;98632.24;;;14.65;80.25
56568;BME280;42456;49.956;20.004;2022-07-12T05:15:50;98629.27;;;14.70;80.21
56568;BME280;42456;49.956;20.004;2022-07-12T05:18:17;98631.38;;;14.76;80.17
56568;BME280;42456;49.956;20.004;2022-07-12T05:20:43;98630.41;;;14.90;80.02
56568;BME280;42456;49.956;20.004;2022-07-12T05:23:09;98619.14;;;15.35;79.97
56568;BME280;42456;49.956;20.004;2022-07-12T05:25:36;98616.67;;;15.86;79.82
56568;BME280;42456;49.956;20.004;2022-07-12T05:28:02;98612.55;;;16.30;79.09
56568;BME280;42456;49.956;20.004;2022-07-12T05:30:29;98614.55;;;16.71;78.20
56568;BME280;42456;49.956;20.004;2022-07-12T05:32:58;98613.58;;;17.15;77.38
56568;BME280;42456;49.956;20.004;2022-07-12T05:35:24;98610.79;;;17.70;76.45
56568;BME280;42456;49.956;20.004;2022-07-12T05:37:50;98616.03;;;18.28;75.45
56568;BME280;42456;49.956;20.004;2022-07-12T05:40:17;98619.02;;;18.82;73.94
56568;BME280;42456;49.956;20.004;2022-07-12T05:42:44;98612.53;;;19.37;72.70
56568;BME280;42456;49.956;20.004;2022-07-12T05:45:11;98614.64;;;19.88;71.18
56568;BME280;42456;49.956;20.004;2022-07-12T05:47:37;98611.48;;;20.13;69.93
56568;BME280;42456;49.956;20.004;2022-07-12T05:50:05;98608.45;;;20.36;68.53
56568;BME280;42456;49.956;20.004;2022-07-12T05:52:31;98615.55;;;20.48;67.28
56568;BME280;42456;49.956;20.004;2022-07-12T05:55:12;98623.22;;;20.76;66.50
56568;BME280;42456;49.956;20.004;2022-07-12T05:57:38;98623.42;;;20.74;64.90
56568;BME280;42456;49.956;20.004;2022-07-12T06:00:06;98617.36;;;20.78;64.48
56568;BME280;42456;49.956;20.004;2022-07-12T06:02:33;98615.79;;;20.73;64.30
56568;BME280;42456;49.956;20.004;2022-07-12T06:04:59;98615.98;;;20.64;63.52
56568;BME280;42456;49.956;20.004;2022-07-12T06:07:25;98618.45;;;20.41;63.46
56568;BME280;42456;49.956;20.004;2022-07-12T06:09:52;98611.14;;;20.84;63.01
56568;BME280;42456;49.956;20.004;2022-07-12T06:12:18;98615.09;;;20.97;62.57
56568;BME280;42456;49.956;20.004;2022-07-12T06:14:47;98613.96;;;21.19;61.86
56568;BME280;42456;49.956;20.004;2022-07-12T06:17:13;98616.48;;;21.50;60.91
56568;BME280;42456;49.956;20.004;2022-07-12T06:19:40;98617.00;;;22.66;60.47
56568;BME280;42456;49.956;20.004;2022-07-12T06:22:06;98623.84;;;23.02;59.14
56568;BME280;42456;49.956;20.004;2022-07-12T06:24:33;98619.09;;;23.79;58.10
56568;BME280;42456;49.956;20.004;2022-07-12T06:26:59;98620.72;;;23.73;56.37
56568;BME280;42456;49.956;20.004;2022-07-12T06:29:25;98611.34;;;23.71;55.36
56568;BME280;42456;49.956;20.004;2022-07-12T06:31:51;98622.13;;;23.95;55.71
56568;BME280;42456;49.956;20.004;2022-07-12T06:34:17;98615.94;;;23.81;54.68
56568;BME280;42456;49.956;20.004;2022-07-12T06:36:44;98624.31;;;23.45;54.41
56568;BME280;42456;49.956;20.004;2022-07-12T06:39:10;98618.73;;;23.04;54.65
56568;BME280;42456;49.956;20.004;2022-07-12T06:41:36;98612.09;;;22.66;54.71
56568;BME280;42456;49.956;20.004;2022-07-12T06:44:03;98610.88;;;22.31;55.13
56568;BME280;42456;49.956;20.004;2022-07-12T06:46:30;98614.72;;;21.86;55.51
56568;BME280;42456;49.956;20.004;2022-07-12T06:48:56;98611.22;;;21.61;56.17
56568;BME280;42456;49.956;20.004;2022-07-12T06:51:22;98607.70;;;21.40;56.74
56568;BME280;42456;49.956;20.004;2022-07-12T06:53:48;98608.67;;;21.27;57.43
56568;BME280;42456;49.956;20.004;2022-07-12T06:56:15;98609.45;;;21.17;57.66
56568;BME280;42456;49.956;20.004;2022-07-12T06:58:41;98609.63;;;21.01;57.72
56568;BME280;42456;49.956;20.004;2022-07-12T07:01:09;98611.13;;;20.81;58.27
56568;BME280;42456;49.956;20.004;2022-07-12T07:03:36;98618.69;;;20.60;58.78
56568;BME280;42456;49.956;20.004;2022-07-12T07:06:05;98618.26;;;20.44;59.02
56568;BME280;42456;49.956;20.004;2022-07-12T07:08:32;98615.25;;;20.22;59.25
56568;BME280;42456;49.956;20.004;2022-07-12T07:10:58;98622.76;;;20.08;59.88
56568;BME280;42456;49.956;20.004;2022-07-12T07:13:24;98624.61;;;19.94;59.67
56568;BME280;42456;49.956;20.004;2022-07-12T07:15:50;98627.72;;;19.89;59.97
56568;BME280;42456;49.956;20.004;2022-07-12T07:18:17;98630.80;;;19.84;60.00
56568;BME280;42456;49.956;20.004;2022-07-12T07:20:43;98629.39;;;19.77;60.37
56568;BME280;42456;49.956;20.004;2022-07-12T07:23:09;98631.14;;;19.75;60.64
56568;BME280;42456;49.956;20.004;2022-07-12T07:25:36;98627.20;;;19.69;60.49
56568;BME280;42456;49.956;20.004;2022-07-12T07:28:05;98624.40;;;19.59;60.82
56568;BME280;42456;49.956;20.004;2022-07-12T07:30:31;98627.13;;;19.59;61.26
56568;BME280;42456;49.956;20.004;2022-07-12T07:33:16;98632.96;;;19.57;61.24
56568;BME280;42456;49.956;20.004;2022-07-12T07:35:41;98634.33;;;19.57;61.40
56568;BME280;42456;49.956;20.004;2022-07-12T07:38:09;98631.83;;;19.62;61.48
56568;BME280;42456;49.956;20.004;2022-07-12T07:40:36;98635.61;;;19.74;61.40
56568;BME280;42456;49.956;20.004;2022-07-12T07:43:02;98632.38;;;19.88;61.41
56568;BME280;42456;49.956;20.004;2022-07-12T07:45:29;98631.11;;;20.06;61.24
56568;BME280;42456;49.956;20.004;2022-07-12T07:47:55;98633.58;;;20.21;61.01
56568;BME280;42456;49.956;20.004;2022-07-12T07:50:21;98632.11;;;20.41;60.80
56568;BME280;42456;49.956;20.004;2022-07-12T07:52:47;98639.97;;;20.54;60.65
56568;BME280;42456;49.956;20.004;2022-07-12T07:55:15;98646.59;;;20.60;60.23
56568;BME280;42456;49.956;20.004;2022-07-12T07:57:42;98640.97;;;20.62;59.89
56568;BME280;42456;49.956;20.004;2022-07-12T08:00:09;98642.94;;;20.72;59.92
56568;BME280;42456;49.956;20.004;2022-07-12T08:02:36;98641.22;;;20.84;59.50
56568;BME280;42456;49.956;20.004;2022-07-12T08:05:03;98643.81;;;21.01;59.27
56568;BME280;42456;49.956;20.004;2022-07-12T08:07:29;98648.12;;;21.12;58.96
56568;BME280;42456;49.956;20.004;2022-07-12T08:09:55;98649.32;;;21.22;58.96
56568;BME280;42456;49.956;20.004;2022-07-12T08:12:22;98638.39;;;21.36;58.85
56568;BME280;42456;49.956;20.004;2022-07-12T08:14:48;98636.82;;;21.59;58.82
56568;BME280;42456;49.956;20.004;2022-07-12T08:17:14;98646.41;;;21.80;58.29
56568;BME280;42456;49.956;20.004;2022-07-12T08:19:40;98646.40;;;21.94;57.64
56568;BME280;42456;49.956;20.004;2022-07-12T08:22:07;98652.80;;;22.10;56.96
56568;BME280;42456;49.956;20.004;2022-07-12T08:24:33;98652.95;;;22.28;56.67
56568;BME280;42456;49.956;20.004;2022-07-12T08:26:59;98648.77;;;22.46;56.52
56568;BME280;42456;49.956;20.004;2022-07-12T08:29:26;98648.52;;;22.70;56.17
56568;BME280;42456;49.956;20.004;2022-07-12T08:31:52;98649.41;;;22.85;56.08
56568;BME280;42456;49.956;20.004;2022-07-12T08:34:18;98655.86;;;22.87;55.49
56568;BME280;42456;49.956;20.004;2022-07-12T08:36:44;98659.45;;;22.77;54.42
56568;BME280;42456;49.956;20.004;2022-07-12T08:39:11;98653.67;;;22.54;53.68
56568;BME280;42456;49.956;20.004;2022-07-12T08:41:37;98652.16;;;22.28;53.50
56568;BME280;42456;49.956;20.004;2022-07-12T08:44:04;98643.00;;;22.16;54.49
56568;BME280;42456;49.956;20.004;2022-07-12T08:46:30;98640.29;;;22.05;54.94
56568;BME280;42456;49.956;20.004;2022-07-12T08:49:04;98636.77;;;22.12;55.27
56568;BME280;42456;49.956;20.004;2022-07-12T08:51:32;98635.61;;;22.09;54.60
56568;BME280;42456;49.956;20.004;2022-07-12T08:54:12;98631.07;;;22.14;55.13
56568;BME280;42456;49.956;20.004;2022-07-12T08:56:40;98621.48;;;22.18;55.39
56568;BME280;42456;49.956;20.004;2022-07-12T08:59:19;98618.16;;;22.15;55.11
56568;BME280;42456;49.956;20.004;2022-07-12T09:01:51;98622.84;;;22.21;55.13
56568;BME280;42456;49.956;20.004;2022-07-12T09:04:21;98619.72;;;22.16;54.41
56568;BME280;42456;49.956;20.004;2022-07-12T09:06:49;98626.78;;;22.10;54.54
56568;BME280;42456;49.956;20.004;2022-07-12T09:11:59;98624.86;;;22.03;54.63
56568;BME280;42456;49.956;20.004;2022-07-12T09:14:25;98618.34;;;22.23;55.51
56568;BME280;42456;49.956;20.004;2022-07-12T09:17:07;98617.87;;;22.42;56.43
56568;BME280;42456;49.956;20.004;2022-07-12T09:19:38;98626.27;;;22.47;56.13
56568;BME280;42456;49.956;20.004;2022-07-12T09:22:13;98627.27;;;22.52;54.78
56568;BME280;42456;49.956;20.004;2022-07-12T09:24:42;98623.33;;;22.56;54.17
56568;BME280;42456;49.956;20.004;2022-07-12T09:27:08;98628.20;;;22.57;53.52
56568;BME280;42456;49.956;20.004;2022-07-12T09:29:46;98633.05;;;22.71;53.36
56568;BME280;42456;49.956;20.004;2022-07-12T09:32:13;98637.27;;;22.86;53.71
56568;BME280;42456;49.956;20.004;2022-07-12T09:34:57;98643.84;;;22.99;53.32
56568;BME280;42456;49.956;20.004;2022-07-12T09:37:39;98655.67;;;22.89;52.63
56568;BME280;42456;49.956;20.004;2022-07-12T09:40:07;98683.99;;;22.65;52.90
56568;BME280;42456;49.956;20.004;2022-07-12T09:42:35;98706.00;;;22.30;53.50
56568;BME280;42456;49.956;20.004;2022-07-12T09:45:03;98703.09;;;21.69;53.61
56568;BME280;42456;49.956;20.004;2022-07-12T09:47:32;98708.10;;;21.04;55.41
56568;BME280;42456;49.956;20.004;2022-07-12T09:49:58;98706.67;;;20.45;56.19
56568;BME280;42456;49.956;20.004;2022-07-12T09:52:26;98702.30;;;20.03;57.18
56568;BME280;42456;49.956;20.004;2022-07-12T09:54:54;98701.30;;;19.75;57.94
56568;BME280;42456;49.956;20.004;2022-07-12T09:57:32;98680.09;;;19.54;58.53
56568;BME280;42456;49.956;20.004;2022-07-12T10:00:00;98679.83;;;19.46;59.19
56568;BME280;42456;49.956;20.004;2022-07-12T10:02:27;98671.07;;;19.47;59.90
56568;BME280;42456;49.956;20.004;2022-07-12T10:04:54;98669.00;;;19.57;60.76
56568;BME280;42456;49.956;20.004;2022-07-12T10:07:26;98670.88;;;19.73;60.75
56568;BME280;42456;49.956;20.004;2022-07-12T10:09:53;98664.34;;;19.88;61.03
56568;BME280;42456;49.956;20.004;2022-07-12T10:12:22;98668.36;;;20.04;61.11
56568;BME280;42456;49.956;20.004;2022-07-12T10:14:55;98666.54;;;20.22;61.56
56568;BME280;42456;49.956;20.004;2022-07-12T10:17:24;98661.35;;;20.34;62.05
56568;BME280;42456;49.956;20.004;2022-07-12T10:20:17;98652.22;;;20.46;62.59
56568;BME280;42456;49.956;20.004;2022-07-12T10:22:44;98657.51;;;20.53;62.76
56568;BME280;42456;49.956;20.004;2022-07-12T10:27:57;98643.66;;;20.52;62.86
56568;BME280;42456;49.956;20.004;2022-07-12T10:30:24;98635.05;;;20.49;63.76
56568;BME280;42456;49.956;20.004;2022-07-12T10:32:52;98635.82;;;20.46;63.58
56568;BME280;42456;49.956;20.004;2022-07-12T10:35:23;98625.66;;;20.43;64.16
56568;BME280;42456;49.956;20.004;2022-07-12T10:40:44;98628.01;;;20.45;63.97
56568;BME280;42456;49.956;20.004;2022-07-12T10:43:13;98633.31;;;20.48;64.23
56568;BME280;42456;49.956;20.004;2022-07-12T10:45:43;98625.52;;;20.53;63.54
56568;BME280;42456;49.956;20.004;2022-07-12T10:53:28;98619.94;;;20.94;62.77
56568;BME280;42456;49.956;20.004;2022-07-12T10:56:09;98620.39;;;21.07;62.58
56568;BME280;42456;49.956;20.004;2022-07-12T10:58:41;98611.03;;;21.15;61.77
56568;BME280;42456;49.956;20.004;2022-07-12T11:01:15;98615.53;;;21.24;61.09
56568;BME280;42456;49.956;20.004;2022-07-12T11:03:50;98613.77;;;21.32;61.01
56568;BME280;42456;49.956;20.004;2022-07-12T11:06:21;98618.85;;;21.48;61.05
56568;BME280;42456;49.956;20.004;2022-07-12T11:11:28;98617.65;;;21.70;59.16
56568;BME280;42456;49.956;20.004;2022-07-12T11:13:59;98613.77;;;21.78;59.53
56568;BME280;42456;49.956;20.004;2022-07-12T11:16:44;98626.04;;;21.92;60.44
56568;BME280;42456;49.956;20.004;2022-07-12T11:19:11;98612.90;;;22.12;59.75
56568;BME280;42456;49.956;20.004;2022-07-12T11:21:37;98617.52;;;22.33;59.59
56568;BME280;42456;49.956;20.004;2022-07-12T11:24:16;98609.65;;;22.39;58.70
56568;BME280;42456;49.956;20.004;2022-07-12T11:26:47;98610.62;;;22.44;58.83
56568;BME280;42456;49.956;20.004;2022-07-12T11:29:14;98605.31;;;22.48;58.11
56568;BME280;42456;49.956;20.004;2022-07-12T11:31:40;98601.42;;;22.42;56.59
56568;BME280;42456;49.956;20.004;2022-07-12T11:34:06;98618.16;;;22.18;55.91
56568;BME280;42456;49.956;20.004;2022-07-12T11:36:33;98601.97;;;22.02;56.11
56568;BME280;42456;49.956;20.004;2022-07-12T11:38:59;98603.53;;;22.03;56.88
56568;BME280;42456;49.956;20.004;2022-07-12T11:41:26;98599.78;;;22.12;57.11
56568;BME280;42456;49.956;20.004;2022-07-12T11:43:53;98597.04;;;22.15;57.06
56568;BME280;42456;49.956;20.004;2022-07-12T11:46:19;98587.23;;;22.21;56.41
56568;BME280;42456;49.956;20.004;2022-07-12T11:48:45;98599.30;;;22.35;56.17
56568;BME280;42456;49.956;20.004;2022-07-12T11:51:13;98600.27;;;22.40;55.57
56568;BME280;42456;49.956;20.004;2022-07-12T11:53:40;98581.63;;;22.46;55.50
56568;BME280;42456;49.956;20.004;2022-07-12T11:56:08;98595.90;;;22.49;55.46
56568;BME280;42456;49.956;20.004;2022-07-12T11:58:41;98591.80;;;22.56;56.12
56568;BME280;42456;49.956;20.004;2022-07-12T12:01:11;98581.58;;;22.64;55.68
56568;BME280;42456;49.956;20.004;2022-07-12T12:03:44;98583.92;;;22.65;54.50
56568;BME280;42456;49.956;20.004;2022-07-12T12:06:11;98581.81;;;22.58;54.37
56568;BME280;42456;49.956;20.004;2022-07-12T12:08:38;98589.47;;;22.51;53.81
56568;BME280;42456;49.956;20.004;2022-07-12T12:11:04;98591.61;;;22.48;52.91
56568;BME280;42456;49.956;20.004;2022-07-12T12:13:30;98594.17;;;22.40;53.20
56568;BME280;42456;49.956;20.004;2022-07-12T12:15:59;98588.52;;;22.36;53.46
56568;BME280;42456;49.956;20.004;2022-07-12T12:18:39;98585.38;;;22.41;53.62
56568;BME280;42456;49.956;20.004;2022-07-12T12:21:09;98583.00;;;22.53;53.77
56568;BME280;42456;49.956;20.004;2022-07-12T12:23:38;98584.50;;;22.65;53.68
56568;BME280;42456;49.956;20.004;2022-07-12T12:26:20;98580.91;;;22.75;53.21
56568;BME280;42456;49.956;20.004;2022-07-12T12:28:51;98582.05;;;22.81;53.15
56568;BME280;42456;49.956;20.004;2022-07-12T12:31:22;98584.37;;;22.82;53.16
56568;BME280;42456;49.956;20.004;2022-07-12T12:33:52;98579.92;;;22.77;52.28
56568;BME280;42456;49.956;20.004;2022-07-12T12:36:23;98575.23;;;22.74;52.17
56568;BME280;42456;49.956;20.004;2022-07-12T12:38:58;98573.75;;;22.62;51.71
56568;BME280;42456;49.956;20.004;2022-07-12T12:41:27;98574.95;;;22.58;51.72
56568;BME280;42456;49.956;20.004;2022-07-12T12:44:05;98588.84;;;22.55;51.68
56568;BME280;42456;49.956;20.004;2022-07-12T12:46:50;98581.41;;;22.59;51.92
56568;BME280;42456;49.956;20.004;2022-07-12T12:49:46;98568.45;;;22.63;52.01
56568;BME280;42456;49.956;20.004;2022-07-12T12:52:17;98559.98;;;22.73;52.47
56568;BME280;42456;49.956;20.004;2022-07-12T12:54:44;98563.45;;;22.80;51.77
56568;BME280;42456;49.956;20.004;2022-07-12T12:57:11;98564.02;;;22.83;51.96
56568;BME280;42456;49.956;20.004;2022-07-12T12:59:38;98567.52;;;22.87;51.93
56568;BME280;42456;49.956;20.004;2022-07-12T13:02:07;98578.80;;;23.00;51.91
56568;BME280;42456;49.956;20.004;2022-07-12T13:04:35;98575.60;;;23.05;51.54
56568;BME280;42456;49.956;20.004;2022-07-12T13:07:02;98573.23;;;23.10;51.58
56568;BME280;42456;49.956;20.004;2022-07-12T13:09:29;98570.66;;;23.11;51.29
56568;BME280;42456;49.956;20.004;2022-07-12T13:11:56;98578.73;;;23.07;51.29
56568;BME280;42456;49.956;20.004;2022-07-12T13:14:22;98587.28;;;22.90;51.20